map of CEP home
CEP - Airport
Location
City:  Concepción, Ñuflo de Chávez, Santa Cruz, Bolivia
Name:Concepción Airport
ICAO:SLCP
IATA:CEP

Details
Type:Airport (Aerodrome, Airfield)
Latitude:16°08'35"S (-16.143055)
Longitude:62°01'34"W (-62.026110)
Elevation:1620 ft (494 m)
Variation:13.28°W (WMM2015 magnetic declination)
-0.19° annual change
Runways:1
Longest:5741 ft (1750 m)

Time
Time Zone:UTC-4
Local Time:

Weather
METAR:SLCP 191400Z 33015KT 9999 FEW017 SCT070 29/24 Q1014

Related Locations
Nearby:
Farthest:RPUI: 12302 mi / 19798 km
Iba, PH

Find:

   beyond  
but within

Other Information
Maps:
NOTAMs:
Links:
Sources:

  
  • flag of Bolivia
  • flag of Santa Cruz
  

Sectional Chart

Flight Planning
at skyvector.com

Satellite Image

Google Maps Satellite view

 

Copyright © 2004-2018 Karl L. Swartz. All rights reserved.
The Great Circle Mapper name and logo are trademarks of the Great Circle Mapper.
All other trademarks mentioned herein belong to their respective owners.
Please see credits for attibutions and further copyright information.

  Follow gcmap on Facebook Follow gcmap on Twitter Follow gcmap on Google+ GCmap on LinkedIn

hCard Microformat

Geo Microformat